• Join FlightAware (Why Join?)
  • Login
  • US Flag 
05:58PM EST


 

Airport Tracker/Info


-or-


 

Live Flight TrackerFlight Track Log ✈ SWA1802 ✈ 21-Jul-2013 ✈ KTUL - KLAX

Flight Track Log - Related Links

Times and Time Zones

All times are in EDT time to prevent confusion due to time zone crossing. See the SWA1802 flight status page for this flight to view local times or setup timezone preferences in your user account.

Time Position Orientation Groundspeed Altitude Reporting Facility
EDT Latitude Longitude Course Direction KTS MPH feet Rate Location/Type
09:50PM 36.1281 -95.8875 184° South 196 226 3,200  Level Kansas City Center
09:51PM 36.0792 -95.9300 215° Southwest 262 302 5,600 2,520 Climbing Kansas City Center
09:52PM 36.0453 -96.0111 243° Southwest 262 302 8,300 2,460 Climbing Kansas City Center
09:53PM 36.0431 -96.1075 268° West 285 328 10,600 1,620 Climbing Kansas City Center
09:54PM 36.0497 -96.2228 274° West 324 373 11,700 1,620 Climbing Kansas City Center
09:55PM 36.0575 -96.3556 274° West 370 426 14,000 2,220 Climbing Kansas City Center
09:56PM 36.0658 -96.4900 274° West 388 447 16,300 2,280 Climbing Kansas City Center
09:57PM 36.0739 -96.6303 274° West 401 461 18,700 1,560 Climbing Kansas City Center
10:03PM 35.9200 -97.4580 274° West 457 526 27,500 1,500 Climbing FlightAware
10:04PM 35.8930 -97.5870 256° West 454 522 28,600 1,680 Climbing FlightAware
10:04PM 35.8680 -97.7070 256° West 448 516 29,900 1,440 Climbing FlightAware
10:05PM 35.8460 -97.8120 256° West 445 512 30,800 1,200 Climbing FlightAware
10:06PM 35.8230 -97.9180 255° West 444 511 31,700 1,140 Climbing FlightAware
10:06PM 35.8070 -98.0220 259° West 440 506 32,500 1,080 Climbing FlightAware
10:07PM 35.8070 -98.1170 270° West 439 505 33,200 1,020 Climbing FlightAware
10:08PM 35.8080 -98.2190 271° West 437 503 33,900 1,020 Climbing FlightAware
10:08PM 35.8090 -98.3170 271° West 434 499 34,600 1,080 Climbing FlightAware
10:09PM 35.8100 -98.4080 271° West 433 498 35,300 1,020 Climbing FlightAware
10:10PM 35.8120 -98.5130 271° West 429 494 36,000 480 Climbing FlightAware
10:10PM 35.8130 -98.6070 271° West 428 493 36,000  Level FlightAware
10:14PM 35.8120 -99.0310 270° West 428 493 36,000  Level FlightAware
10:15PM 35.8120 -99.1300 270° West 428 493 36,000  Level FlightAware
10:15PM 35.8120 -99.2050 270° West 428 493 36,000  Level FlightAware
10:16PM 35.8120 -99.3560 270° West 428 493 36,000  Level FlightAware
10:17PM 35.8120 -99.4310 270° West 428 493 36,000  Level FlightAware
10:18PM 35.8120 -99.5560 270° West 428 493 36,000  Level FlightAware
10:19PM 35.8120 -99.6300 270° West 428 493 36,000  Level FlightAware
10:19PM 35.8120 -99.7320 270° West 428 493 36,000  Level FlightAware
10:20PM 35.8120 -99.8070 270° West 428 493 36,000  Level FlightAware
10:21PM 35.8203 -100.1133 270° West 428 493 36,000  Level Albuquerque Center
10:22PM 35.8178 -100.2592 269° West 426 490 36,000  Level Albuquerque Center
10:23PM 35.8194 -100.4069 271° West 429 494 36,000  Level Albuquerque Center
10:24PM 35.8167 -100.5528 269° West 428 493 36,000  Level Albuquerque Center
10:25PM 35.8144 -100.6992 269° West 428 493 36,000  Level Albuquerque Center
10:26PM 35.8122 -100.8469 269° West 430 495 36,000  Level Albuquerque Center
10:27PM 35.8114 -101.0136 270° West 430 495 36,000  Level Albuquerque Center
10:28PM 35.8111 -101.1592 270° West 429 494 36,000  Level Albuquerque Center
10:29PM 35.8092 -101.3047 269° West 428 493 36,000  Level Albuquerque Center
10:30PM 35.8067 -101.4486 269° West 426 490 36,000  Level Albuquerque Center
10:31PM 35.8028 -101.5922 268° West 424 488 36,000  Level Albuquerque Center
10:32PM 35.7986 -101.7358 268° West 424 488 36,000  Level Albuquerque Center
10:33PM 35.7944 -101.9103 268° West 427 491 36,000  Level Albuquerque Center
10:34PM 35.7894 -102.0575 268° West 432 497 36,000  Level Albuquerque Center
10:35PM 35.7850 -102.2025 268° West 429 494 36,000  Level Albuquerque Center
10:36PM 35.7803 -102.3494 268° West 430 495 36,000  Level Albuquerque Center
10:37PM 35.7753 -102.4958 268° West 431 496 36,000  Level Albuquerque Center
10:38PM 35.7706 -102.6431 268° West 432 497 36,000  Level Albuquerque Center
10:39PM 35.7650 -102.7914 267° West 434 499 36,000  Level Albuquerque Center
10:40PM 35.7597 -102.9433 268° West 435 501 36,000  Level Albuquerque Center
10:41PM 35.7542 -103.0936 267° West 436 502 36,000  Level Albuquerque Center
10:42PM 35.7469 -103.2689 267° West 436 502 36,000  Level Albuquerque Center
10:43PM 35.7419 -103.4192 268° West 436 502 36,000  Level Albuquerque Center
10:44PM 35.7361 -103.5692 267° West 437 503 36,000  Level Albuquerque Center
10:45PM 35.7281 -103.7167 266° West 433 498 36,000  Level Albuquerque Center
10:46PM 35.7214 -103.8636 267° West 430 495 36,000  Level Albuquerque Center
10:47PM 35.7156 -104.0103 267° West 429 494 36,000  Level Albuquerque Center
10:48PM 35.7067 -104.1575 266° West 431 496 36,000  Level Albuquerque Center
10:49PM 35.6928 -104.3053 263° West 434 499 36,000  Level Albuquerque Center
10:51PM 35.6792 -104.4544 264° West 438 504 36,000  Level Albuquerque Center
10:52PM 35.6664 -104.6031 264° West 437 503 36,000  Level Albuquerque Center
10:53PM 35.6519 -104.7533 263° West 440 506 36,000  Level Albuquerque Center
10:54PM 35.6344 -104.9294 263° West 443 510 36,000  Level Albuquerque Center
10:59PM 35.5500 -105.8090 263° West 449 517 36,000  Level FlightAware
11:00PM 35.5410 -105.8920 262° West 450 518 36,000  Level FlightAware
11:01PM 35.5300 -105.9990 263° West 453 521 36,000  Level FlightAware
11:01PM 35.5190 -106.1120 263° West 454 522 36,000  Level FlightAware
11:02PM 35.5100 -106.1920 262° West 455 524 36,000  Level FlightAware
11:03PM 35.4980 -106.3060 263° West 455 524 36,000  Level FlightAware
11:03PM 35.4870 -106.4090 263° West 455 524 36,000  Level FlightAware
11:04PM 35.4760 -106.5190 263° West 455 524 36,000  Level FlightAware
11:05PM 35.4640 -106.6300 262° West 453 521 36,000  Level FlightAware
11:05PM 35.4520 -106.7410 262° West 454 522 36,000 240 Level FlightAware
11:06PM 35.4410 -106.8380 262° West 452 520 36,400 900 Climbing FlightAware
11:07PM 35.4290 -106.9420 262° West 447 514 37,200 1,080 Climbing FlightAware
11:07PM 35.4190 -107.0320 262° West 444 511 37,800 600 Climbing FlightAware
11:08PM 35.4070 -107.1400 262° West 448 516 38,000 120 Climbing FlightAware
11:09PM 35.3970 -107.2300 262° West 449 517 38,000  Level FlightAware
11:10PM 35.3830 -107.3510 262° West 448 516 38,000  Level FlightAware
11:10PM 35.3710 -107.4550 262° West 449 517 38,000  Level FlightAware
11:11PM 35.3560 -107.5910 262° West 451 519 38,000  Level FlightAware
11:12PM 35.3440 -107.6900 262° West 452 520 38,000  Level FlightAware
11:12PM 35.3340 -107.7710 261° West 452 520 38,000  Level FlightAware
11:13PM 35.3200 -107.8730 260° West 452 520 38,000  Level FlightAware
11:14PM 35.3070 -107.9760 261° West 452 520 38,000  Level FlightAware
11:15PM 35.2970 -108.0530 261° West 452 520 38,000  Level FlightAware
11:15PM 35.2840 -108.1560 261° West 452 520 38,000  Level FlightAware
11:16PM 35.2700 -108.2600 261° West 452 520 38,000  Level FlightAware
11:17PM 35.2600 -108.3370 261° West 452 520 38,000  Level FlightAware
11:18PM 35.2470 -108.4400 261° West 452 520 38,000  Level FlightAware
11:18PM 35.2250 -108.6720 263° West 451 519 38,000  Level FlightAware
11:19PM 35.2110 -108.7800 261° West 447 514 38,000  Level FlightAware
11:20PM 35.1980 -108.8800 261° West 446 513 38,000  Level FlightAware
11:20PM 35.1840 -108.9900 261° West 446 513 38,000  Level FlightAware
11:21PM 35.1710 -109.0920 261° West 446 513 38,000  Level FlightAware
11:22PM 35.1570 -109.2040 261° West 446 513 38,000  Level FlightAware
11:22PM 35.1450 -109.2960 261° West 448 516 38,000  Level FlightAware
11:23PM 35.1310 -109.4010 261° West 451 519 38,000  Level FlightAware
11:24PM 35.1160 -109.5130 261° West 455 524 38,000  Level FlightAware
11:25PM 35.1030 -109.6120 261° West 457 526 38,000  Level FlightAware
11:25PM 35.0870 -109.7260 260° West 457 526 38,000  Level FlightAware
11:26PM 35.0730 -109.8300 261° West 457 526 38,000  Level FlightAware
11:27PM 35.0580 -109.9410 261° West 459 528 38,000  Level FlightAware
11:27PM 35.0440 -110.0430 261° West 459 528 38,000  Level FlightAware
11:28PM 35.0310 -110.1360 260° West 461 531 38,000  Level FlightAware
11:29PM 35.0160 -110.2460 261° West 461 531 38,000  Level FlightAware
11:29PM 35.0010 -110.3500 260° West 461 531 38,000  Level FlightAware
11:30PM 34.9890 -110.4380 261° West 459 528 38,000  Level FlightAware
11:31PM 34.9740 -110.5430 260° West 457 526 38,000  Level FlightAware
11:31PM 34.9580 -110.6540 260° West 456 525 38,000  Level FlightAware
11:32PM 34.9440 -110.7570 261° West 456 525 38,000  Level FlightAware
11:33PM 34.9280 -110.8670 260° West 451 519 38,000  Level FlightAware
11:33PM 34.9130 -110.9680 260° West 448 516 38,000  Level FlightAware
11:34PM 34.8970 -111.0760 260° West 446 513 38,000  Level FlightAware
11:35PM 34.8840 -111.1650 260° West 445 512 38,000  Level FlightAware
11:35PM 34.8700 -111.2640 260° West 449 517 38,000  Level FlightAware
11:36PM 34.8530 -111.3730 259° West 452 520 38,000  Level FlightAware
11:37PM 34.8400 -111.4640 260° West 452 520 38,000  Level FlightAware
11:37PM 34.8250 -111.5630 260° West 451 519 38,000  Level FlightAware
11:38PM 34.8090 -111.6670 259° West 451 519 38,000  Level FlightAware
11:39PM 34.7940 -111.7670 260° West 450 518 38,000  Level FlightAware
11:40PM 34.7770 -111.8770 259° West 450 518 38,000  Level FlightAware
11:40PM 34.7600 -111.9870 259° West 450 518 38,000  Level FlightAware
11:41PM 34.7450 -112.0810 259° West 452 520 38,000  Level FlightAware
11:42PM 34.7280 -112.1950 260° West 453 521 38,000  Level FlightAware
11:42PM 34.7150 -112.2760 259° West 452 520 38,000  Level FlightAware
11:43PM 34.6980 -112.3850 259° West 454 522 38,000  Level FlightAware
11:44PM 34.6820 -112.4870 259° West 453 521 38,000  Level FlightAware
11:44PM 34.6670 -112.5760 258° West 452 520 38,000  Level FlightAware
11:45PM 34.6520 -112.6750 260° West 449 517 38,000  Level FlightAware
11:46PM 34.6340 -112.7830 259° West 447 514 38,000  Level FlightAware
11:46PM 34.6160 -112.8920 259° West 447 514 38,000  Level FlightAware
11:47PM 34.6010 -112.9860 259° West 447 514 38,000  Level FlightAware
11:48PM 34.5830 -113.0970 259° West 448 516 38,000  Level FlightAware
11:48PM 34.5670 -113.1950 259° West 448 516 38,000  Level FlightAware
11:49PM 34.5490 -113.3020 258° West 448 516 38,000  Level FlightAware
11:50PM 34.5330 -113.4020 259° West 449 517 38,000  Level FlightAware
11:51PM 34.5150 -113.5100 259° West 450 518 38,000  Level FlightAware
11:51PM 34.4980 -113.6080 258° West 452 520 38,000  Level FlightAware
11:52PM 34.4790 -113.7180 258° West 453 521 38,000  Level FlightAware
11:53PM 34.4630 -113.8180 259° West 456 525 38,000  Level FlightAware
11:53PM 34.4510 -113.9070 261° West 457 526 38,000  Level FlightAware
11:54PM 34.4370 -114.0090 261° West 458 527 38,000  Level FlightAware
11:55PM 34.4200 -114.1260 260° West 457 526 38,000  Level FlightAware
11:55PM 34.4060 -114.2260 260° West 457 526 38,000 -420 Level FlightAware
11:56PM 34.3900 -114.3330 260° West 457 526 37,500 -840 Descending FlightAware
11:57PM 34.3750 -114.4360 260° West 457 526 36,900 -960 Descending FlightAware
11:57PM 34.3590 -114.5450 260° West 460 529 36,200 -1,020 Descending FlightAware
11:58PM 34.3480 -114.6230 260° West 466 536 35,700 -480 Descending FlightAware
11:59PM 34.3340 -114.7080 259° West 466 536 35,700 -960 Level FlightAware
11:59PM 34.3160 -114.8360 260° West 465 535 34,400 -1,020 Descending FlightAware
12:00AM 34.3030 -114.9160 259° West 465 535 34,400  Level FlightAware
12:01AM 34.2820 -115.0470 259° West 465 535 34,400 -1,140 Level FlightAware
12:02AM 34.2530 -115.2570 261° West 468 539 32,000 -1,380 Descending FlightAware
12:03AM 34.2360 -115.3640 259° West 460 529 32,000  Level FlightAware
12:03AM 34.2190 -115.4780 260° West 473 544 32,000  Level FlightAware
12:04AM 34.2040 -115.5740 259° West 472 543 32,000  Level FlightAware
12:05AM 34.1830 -115.7050 259° West 473 544 32,000  Level FlightAware
12:06AM 34.1670 -115.8100 260° West 473 544 32,000  Level FlightAware
12:06AM 34.1500 -115.9180 259° West 474 545 32,000 -300 Level FlightAware
12:07AM 34.1350 -116.0120 259° West 476 548 31,700 -780 Descending FlightAware
12:08AM 34.1160 -116.1310 259° West 479 551 31,000 -1,080 Descending FlightAware
12:08AM 34.0990 -116.2340 259° West 481 554 30,200 -1,980 Descending FlightAware
12:09AM 34.0800 -116.3520 259° West 473 544 28,300 -2,460 Descending FlightAware
12:10AM 34.0640 -116.4540 259° West 462 532 26,800 -2,220 Descending FlightAware
12:10AM 34.0460 -116.5610 259° West 449 517 25,200 -2,220 Descending FlightAware
12:11AM 34.0300 -116.6550 258° West 437 503 23,800 -2,100 Descending FlightAware
12:12AM 34.0140 -116.7530 259° West 426 490 22,400 -2,100 Descending FlightAware
12:12AM 33.9990 -116.8460 259° West 415 478 21,000 -2,040 Descending FlightAware
12:13AM 33.9840 -116.9370 259° West 405 466 19,700 -1,980 Descending FlightAware
12:14AM 33.9690 -117.0240 258° West 394 453 18,400 -1,980 Descending FlightAware
12:14AM 33.9560 -117.0990 258° West 391 450 17,200 -1,440 Descending FlightAware
12:15AM 33.9480 -117.1900 264° West 360 414 16,500 -1,380 Descending FlightAware
12:16AM 33.9410 -117.2710 264° West 354 407 15,300 -1,740 Descending FlightAware
12:16AM 33.9350 -117.3410 264° West 349 402 14,300 -1,740 Descending FlightAware
12:17AM 33.9390 -117.3950 275° West 343 395 13,500 -1,680 Descending FlightAware
12:18AM 33.9660 -117.4700 293° West 335 386 12,300 -1,740 Descending FlightAware
12:18AM 33.9900 -117.5390 293° West 331 381 11,100 -1,440 Descending FlightAware
12:19AM 34.0120 -117.6130 290° West 315 362 10,300 -1,020 Descending FlightAware
12:19AM 34.0100 -117.6520 266° West 307 353 10,000 -1,020 Descending FlightAware
12:21AM 33.9960 -117.7900 263° West 298 343 8,600 -1,080 Descending FlightAware
12:21AM 33.9950 -117.8060 266° West 297 342 8,400 -1,380 Descending FlightAware
12:21AM 33.9900 -117.8550 263° West 296 341 7,700 -1,500 Descending FlightAware
12:22AM 33.9860 -117.9000 264° West 291 335 7,000 -1,380 Descending FlightAware
12:22AM 33.9830 -117.9260 262° West 287 330 6,700 -1,080 Descending FlightAware
12:23AM 33.9800 -117.9640 265° West 278 320 6,300 -840 Descending FlightAware
12:24AM 33.9720 -118.0460 263° West 275 316 5,500 -1,140 Descending FlightAware
12:24AM 33.9660 -118.1010 263° West 277 319 4,600 -1,800 Descending FlightAware
12:25AM 33.9610 -118.1470 263° West 268 308 3,900 -1,440 Descending FlightAware
12:25AM 33.9570 -118.1890 263° West 241 277 3,200 -1,440 Descending FlightAware
12:25AM 33.9540 -118.2180 263° West 223 257 2,700 -1,200 Descending FlightAware
12:26AM 33.9510 -118.2510 264° West 199 229 2,200 -1,020 Descending FlightAware
12:27AM 33.9460 -118.2950 262° West 170 196 1,500 -900 Descending FlightAware
12:27AM 33.9440 -118.3180 264° West 158 182 1,200 -780 Descending FlightAware
12:28AM 33.9410 -118.3440 262° West 160 184 800 -780 Descending FlightAware
12:28AM 33.9400 -118.3530 262° West 152 175 700 -900 Descending FlightAware
12:28AM 33.9380 -118.3730 263° West 156 180 300 -540 Descending FlightAware
12:29AM 33.9380 -118.3790 270° West 154 177 200 -120 Descending FlightAware
12:29AM 33.9350 -118.3990 260° West 154 177 200  Level FlightAware
12:36AM 33.9333 -118.4000 270° West  Level FlightAware Approximate
12:37AM 33.9425 -118.4081 270° West  Level Estimated